Time;durP1;ratioP1;P1;durP2;ratioP2;P2;SDS_P1;SDS_P2;PMS_P1;PMS_P2;Temp;Humidity;BMP_temperature;BMP_pressure;BME280_temperature;BME280_humidity;BME280_pressure;Samples;Min_cycle;Max_cycle;Signal;HPM_P1;HPM_P2
2023/09/22 00:03:21;;;;;;;6.70;4.00;;;25.20;58.80;;;;;;229220;1264;23142;-54
2023/09/22 00:08:23;;;;;;;5.90;4.20;;;25.30;58.60;;;;;;226943;1265;22701;-53
2023/09/22 00:13:26;;;;;;;9.30;4.60;;;25.20;58.60;;;;;;218413;1248;3633779;-55
2023/09/22 00:18:29;;;;;;;5.90;4.20;;;25.10;58.90;;;;;;229196;1264;22360;-55
2023/09/22 00:23:32;;;;;;;4.40;3.80;;;25.10;59.00;;;;;;229190;1253;22288;-54
2023/09/22 00:28:34;;;;;;;4.70;4.20;;;25.20;58.90;;;;;;229100;1253;23200;-55
2023/09/22 00:33:37;;;;;;;6.20;4.60;;;25.20;58.70;;;;;;229092;1257;23947;-54
2023/09/22 00:38:40;;;;;;;5.60;4.00;;;25.20;58.60;;;;;;229107;1253;22270;-55
2023/09/22 00:43:43;;;;;;;5.10;4.50;;;25.20;58.80;;;;;;229161;1264;23134;-53
2023/09/22 00:48:46;;;;;;;5.60;3.80;;;25.30;58.80;;;;;;229227;1264;22233;-55
2023/09/22 00:53:50;;;;;;;7.30;4.30;;;25.20;58.80;;;;;;229222;1253;22245;-53
2023/09/22 00:58:53;;;;;;;6.00;4.10;;;25.20;59.10;;;;;;229194;1249;22229;-54
2023/09/22 01:03:56;;;;;;;7.50;4.00;;;25.20;59.00;;;;;;229089;1256;22255;-55
2023/09/22 01:09:05;;;;;;;5.00;4.10;;;25.20;58.70;;;;;;229160;1264;24043;-53
2023/09/22 01:14:08;;;;;;;7.70;4.50;;;25.20;58.80;;;;;;229201;1265;22289;-53
2023/09/22 01:19:16;;;;;;;4.40;3.80;;;25.20;58.80;;;;;;229197;1251;22266;-54
2023/09/22 01:24:19;;;;;;;7.50;3.90;;;25.20;58.70;;;;;;229163;1264;22259;-55
2023/09/22 01:29:22;;;;;;;7.00;4.30;;;25.20;58.80;;;;;;229150;1264;22260;-55
2023/09/22 01:34:24;;;;;;;6.00;4.00;;;25.20;58.80;;;;;;227098;1261;25269;-52
2023/09/22 01:39:28;;;;;;;7.40;4.60;;;25.10;59.00;;;;;;229085;1253;23012;-55
2023/09/22 01:44:31;;;;;;;5.20;4.00;;;25.10;59.00;;;;;;229210;1265;23069;-53
2023/09/22 01:49:33;;;;;;;4.90;4.00;;;25.10;59.00;;;;;;229209;1264;22802;-54
2023/09/22 01:54:36;;;;;;;6.50;4.10;;;25.10;59.20;;;;;;229205;1265;22270;-54
2023/09/22 01:59:40;;;;;;;7.20;4.00;;;25.10;58.80;;;;;;229223;1249;22228;-54
2023/09/22 02:04:43;;;;;;;4.60;3.70;;;25.10;59.00;;;;;;229139;1264;22272;-54
2023/09/22 02:09:46;;;;;;;5.40;4.10;;;25.10;58.90;;;;;;227129;1260;22596;-55
2023/09/22 02:14:49;;;;;;;5.30;4.20;;;25.10;58.90;;;;;;229135;1265;22273;-54
2023/09/22 02:19:52;;;;;;;5.80;4.10;;;25.10;59.20;;;;;;229111;1264;22258;-54
2023/09/22 02:24:54;;;;;;;6.10;4.00;;;25.10;59.00;;;;;;229151;1264;22257;-54
2023/09/22 02:29:57;;;;;;;5.00;4.50;;;25.10;59.30;;;;;;229115;1265;22328;-55
2023/09/22 02:35:00;;;;;;;6.00;4.20;;;25.10;59.00;;;;;;229048;1265;22271;-55
2023/09/22 02:40:05;;;;;;;8.60;4.20;;;25.10;59.60;;;;;;229102;1264;22252;-54
2023/09/22 02:45:10;;;;;;;4.90;4.40;;;25.10;59.00;;;;;;229173;1264;22307;-53
2023/09/22 02:50:18;;;;;;;5.30;4.40;;;25.00;59.00;;;;;;229269;1265;22295;-55
2023/09/22 02:55:21;;;;;;;6.80;4.50;;;25.10;59.10;;;;;;229235;1264;22246;-54
2023/09/22 03:00:23;;;;;;;4.40;3.90;;;25.00;59.10;;;;;;229304;1264;22259;-54
2023/09/22 03:05:26;;;;;;;8.30;4.20;;;25.00;59.10;;;;;;229212;1265;23280;-54
2023/09/22 03:10:33;;;;;;;5.80;4.30;;;25.00;59.10;;;;;;229209;1264;22248;-53
2023/09/22 03:15:36;;;;;;;5.60;4.20;;;25.00;59.20;;;;;;229194;1253;22284;-53
2023/09/22 03:20:39;;;;;;;5.70;3.90;;;25.00;59.10;;;;;;229317;1251;22253;-52
2023/09/22 03:25:44;;;;;;;7.20;4.30;;;25.00;59.20;;;;;;226553;1264;24255;-54
2023/09/22 03:30:48;;;;;;;4.60;4.20;;;25.00;59.20;;;;;;229256;1265;22395;-53
2023/09/22 03:35:50;;;;;;;5.70;4.00;;;25.00;59.20;;;;;;228040;1257;25306;-54
2023/09/22 03:40:59;;;;;;;5.00;3.80;;;24.90;59.10;;;;;;229320;1253;22276;-55
2023/09/22 03:46:03;;;;;;;5.40;4.00;;;24.90;59.10;;;;;;229214;1264;23243;-54
2023/09/22 03:51:05;;;;;;;6.50;4.20;;;25.00;59.40;;;;;;229219;1264;22264;-55
2023/09/22 03:56:09;;;;;;;5.40;4.20;;;24.90;59.60;;;;;;229245;1264;22272;-53
2023/09/22 04:01:11;;;;;;;5.20;3.80;;;25.00;59.10;;;;;;229237;1251;22351;-55
2023/09/22 04:06:14;;;;;;;5.90;4.20;;;24.90;59.10;;;;;;229209;1265;23531;-55
2023/09/22 04:11:17;;;;;;;7.20;4.10;;;25.00;59.40;;;;;;229213;1264;22365;-55
2023/09/22 04:16:20;;;;;;;4.70;4.20;;;24.90;59.20;;;;;;229165;1264;23379;-55
2023/09/22 04:21:23;;;;;;;5.40;4.30;;;24.90;59.20;;;;;;224098;1253;25151;-53
2023/09/22 04:26:29;;;;;;;5.50;4.70;;;24.90;59.20;;;;;;220765;1257;22576;-61
2023/09/22 04:31:33;;;;;;;6.00;4.20;;;24.80;59.70;;;;;;229203;1255;23100;-54
2023/09/22 04:36:36;;;;;;;6.20;4.10;;;24.80;60.20;;;;;;229290;1253;24130;-55
2023/09/22 04:41:39;;;;;;;4.10;3.80;;;24.90;59.50;;;;;;229221;1264;22277;-53
2023/09/22 04:46:42;;;;;;;5.70;4.40;;;24.90;59.90;;;;;;229260;1257;23222;-54
2023/09/22 04:51:44;;;;;;;5.00;4.40;;;24.90;59.30;;;;;;229242;1260;22321;-54
2023/09/22 04:56:47;;;;;;;4.30;3.90;;;24.90;59.90;;;;;;229255;1257;22725;-53
2023/09/22 05:01:50;;;;;;;6.70;4.50;;;24.90;59.40;;;;;;229120;1251;22296;-55
2023/09/22 05:06:52;;;;;;;4.40;4.00;;;24.90;59.80;;;;;;229204;1250;22301;-54
2023/09/22 05:11:55;;;;;;;5.40;3.90;;;24.90;59.50;;;;;;229206;1250;22294;-54
2023/09/22 05:16:58;;;;;;;4.50;4.00;;;24.90;59.70;;;;;;229240;1264;22309;-54
2023/09/22 05:22:00;;;;;;;7.70;4.00;;;24.90;59.60;;;;;;229297;1249;22250;-54
2023/09/22 05:27:07;;;;;;;5.90;4.10;;;24.90;59.50;;;;;;229167;1249;22773;-53
2023/09/22 05:32:09;;;;;;;6.50;4.20;;;24.90;60.00;;;;;;221110;1254;22650;-53
2023/09/22 05:37:12;;;;;;;7.60;4.10;;;24.90;60.30;;;;;;229156;1254;22295;-54
2023/09/22 05:42:15;;;;;;;5.40;4.90;;;24.70;60.60;;;;;;229133;1264;22287;-53
2023/09/22 05:47:18;;;;;;;7.10;3.90;;;24.90;60.30;;;;;;229203;1251;22277;-55
2023/09/22 05:52:21;;;;;;;6.50;4.00;;;24.90;60.20;;;;;;229156;1264;22258;-56
2023/09/22 05:57:24;;;;;;;5.40;3.90;;;24.80;60.70;;;;;;229181;1257;23259;-55
2023/09/22 06:02:26;;;;;;;7.00;3.90;;;24.80;60.60;;;;;;229229;1251;22286;-56
2023/09/22 06:07:29;;;;;;;6.30;4.20;;;24.90;61.10;;;;;;229190;1248;22266;-55
2023/09/22 06:12:32;;;;;;;9.00;4.60;;;24.80;60.90;;;;;;229215;1251;22284;-52
2023/09/22 06:17:36;;;;;;;6.00;3.90;;;24.90;60.90;;;;;;229184;1251;22323;-54
2023/09/22 06:22:41;;;;;;;5.30;3.90;;;24.90;61.00;;;;;;229091;1252;22295;-56
2023/09/22 06:27:47;;;;;;;8.50;4.70;;;24.90;61.10;;;;;;229166;1254;23034;-55
2023/09/22 06:32:53;;;;;;;11.40;4.20;;;24.90;61.10;;;;;;229143;1249;22280;-53
2023/09/22 06:37:56;;;;;;;4.90;3.80;;;25.00;61.10;;;;;;229145;1248;23127;-55
2023/09/22 06:42:58;;;;;;;10.60;4.30;;;24.90;61.00;;;;;;229129;1251;22285;-56
2023/09/22 06:48:15;;;;;;;9.80;4.00;;;24.90;61.00;;;;;;229160;1249;22446;-55
2023/09/22 06:53:19;;;;;;;4.10;3.50;;;25.00;61.10;;;;;;229200;1249;22286;-54
2023/09/22 06:58:22;;;;;;;11.30;3.90;;;25.00;60.80;;;;;;229084;1249;22448;-53
2023/09/22 07:03:28;;;;;;;10.00;3.90;;;25.10;60.70;;;;;;229142;1249;22257;-54
2023/09/22 07:08:30;;;;;;;8.50;3.80;;;25.10;60.80;;;;;;229176;1249;22260;-54
2023/09/22 07:13:33;;;;;;;8.90;3.90;;;25.00;61.80;;;;;;229159;1249;22264;-55
2023/09/22 07:18:36;;;;;;;7.40;3.70;;;25.10;61.30;;;;;;229205;1251;22327;-54
2023/09/22 07:23:39;;;;;;;5.90;3.40;;;25.20;61.10;;;;;;229185;1261;22321;-55
2023/09/22 07:28:41;;;;;;;6.50;3.30;;;25.30;61.40;;;;;;229132;1248;23250;-54
2023/09/22 07:33:44;;;;;;;9.20;4.20;;;25.40;62.40;;;;;;229204;1253;22294;-53
2023/09/22 07:38:47;;;;;;;6.20;3.60;;;25.60;60.70;;;;;;229221;1248;22338;-55
2023/09/22 07:43:52;;;;;;;4.90;3.40;;;25.60;60.60;;;;;;229096;1248;22298;-55
2023/09/22 07:48:54;;;;;;;7.30;4.10;;;25.40;61.20;;;;;;229086;1264;22307;-53
2023/09/22 07:53:59;;;;;;;10.60;4.40;;;25.40;61.60;;;;;;229081;1253;22277;-53
2023/09/22 07:59:03;;;;;;;10.40;3.70;;;25.20;61.30;;;;;;228996;1264;22730;-50
2023/09/22 08:04:12;;;;;;;6.70;3.50;;;25.20;61.70;;;;;;229153;1250;22272;-50
2023/09/22 08:09:15;;;;;;;15.80;4.40;;;25.40;61.10;;;;;;229148;1264;22284;-51
2023/09/22 08:14:18;;;;;;;9.20;3.40;;;25.40;61.00;;;;;;229197;1264;22284;-50
2023/09/22 08:19:20;;;;;;;10.20;3.50;;;25.50;60.90;;;;;;229198;1251;22337;-50
2023/09/22 08:24:23;;;;;;;4.20;3.10;;;25.60;60.40;;;;;;229168;1251;22284;-53
2023/09/22 08:29:26;;;;;;;6.50;3.70;;;25.60;60.50;;;;;;229112;1264;22936;-50
2023/09/22 08:34:29;;;;;;;7.80;3.70;;;25.60;60.20;;;;;;229174;1258;23018;-53
2023/09/22 08:39:32;;;;;;;8.60;3.90;;;25.40;60.70;;;;;;229141;1258;22273;-50
2023/09/22 08:44:36;;;;;;;8.20;3.50;;;25.40;60.40;;;;;;229177;1249;22678;-52
2023/09/22 08:49:39;;;;;;;8.10;3.40;;;25.60;60.20;;;;;;229166;1248;22275;-55
2023/09/22 08:54:42;;;;;;;4.50;3.00;;;25.50;60.60;;;;;;229166;1250;22332;-54
2023/09/22 08:59:46;;;;;;;8.30;3.40;;;25.50;60.00;;;;;;229227;1248;22724;-52
2023/09/22 09:04:48;;;;;;;4.40;3.00;;;25.40;60.20;;;;;;229150;1255;22286;-52
2023/09/22 09:09:55;;;;;;;6.40;4.40;;;25.50;60.00;;;;;;229253;1248;22287;-53
2023/09/22 09:15:00;;;;;;;6.70;3.70;;;25.60;62.00;;;;;;229191;1251;22423;-51
2023/09/22 09:20:05;;;;;;;9.50;3.60;;;25.60;62.00;;;;;;229189;1253;22344;-51
2023/09/22 09:25:09;;;;;;;5.40;3.60;;;25.60;61.00;;;;;;229149;1249;22568;-50
2023/09/22 09:30:14;;;;;;;5.10;3.50;;;25.50;61.20;;;;;;229162;1250;22272;-51
2023/09/22 09:35:30;;;;;;;5.20;3.20;;;25.40;61.10;;;;;;229172;1248;22298;-52
2023/09/22 09:40:51;;;;;;;6.90;3.20;;;25.40;60.60;;;;;;229270;1253;23014;-52
2023/09/22 09:45:57;;;;;;;4.80;2.80;;;25.40;60.80;;;;;;229269;1248;22258;-53
2023/09/22 09:51:00;;;;;;;3.90;3.20;;;25.40;60.70;;;;;;229256;1264;23115;-50
2023/09/22 09:56:05;;;;;;;3.20;2.90;;;25.40;60.50;;;;;;229207;1249;23453;-52
2023/09/22 10:01:08;;;;;;;5.30;3.10;;;25.30;60.60;;;;;;229262;1248;22655;-52
2023/09/22 10:06:13;;;;;;;4.50;2.80;;;25.30;60.70;;;;;;229201;1262;22365;-52
2023/09/22 10:11:16;;;;;;;7.10;3.00;;;25.40;60.60;;;;;;226178;1249;24205;-51
2023/09/22 10:16:32;;;;;;;3.00;2.60;;;25.40;60.70;;;;;;229258;1258;22345;-52
2023/09/22 10:21:48;;;;;;;6.90;2.80;;;25.30;60.70;;;;;;229267;1254;22286;-53
2023/09/22 10:26:54;;;;;;;4.90;2.90;;;25.30;60.60;;;;;;229254;1253;23246;-54
2023/09/22 10:32:15;;;;;;;3.90;2.50;;;25.30;60.70;;;;;;229237;1248;23944;-52
2023/09/22 10:37:20;;;;;;;2.60;2.20;;;25.40;60.40;;;;;;229266;1249;22357;-52
2023/09/22 10:42:24;;;;;;;3.30;2.50;;;25.40;60.40;;;;;;227495;1253;24235;-55
2023/09/22 10:47:49;;;;;;;2.70;2.00;;;25.40;60.30;;;;;;229199;1264;22438;-55
2023/09/22 10:52:53;;;;;;;2.80;2.00;;;25.40;60.40;;;;;;222075;1257;22526;-55
2023/09/22 10:57:58;;;;;;;2.20;1.80;;;25.30;60.60;;;;;;229177;1264;22310;-56
2023/09/22 11:03:06;;;;;;;2.60;1.60;;;25.30;60.40;;;;;;229224;1264;22345;-54
2023/09/22 11:08:14;;;;;;;4.30;1.70;;;25.30;60.00;;;;;;229243;1264;22272;-53
2023/09/22 11:13:18;;;;;;;3.70;1.80;;;25.30;60.00;;;;;;229259;1248;22240;-54
2023/09/22 11:18:27;;;;;;;3.80;1.80;;;25.30;60.00;;;;;;229276;1259;22318;-52
2023/09/22 11:23:30;;;;;;;2.20;1.90;;;25.30;60.30;;;;;;229240;1255;23058;-55
2023/09/22 11:28:34;;;;;;;3.50;1.50;;;25.30;60.20;;;;;;229209;1264;22379;-56
2023/09/22 11:33:37;;;;;;;5.50;1.50;;;25.30;60.10;;;;;;229252;1253;22246;-55
2023/09/22 11:38:40;;;;;;;3.00;1.80;;;25.30;60.30;;;;;;229228;1264;22774;-55
2023/09/22 11:43:44;;;;;;;3.80;2.10;;;25.30;60.10;;;;;;229227;1264;22348;-55
2023/09/22 11:49:01;;;;;;;2.30;1.80;;;25.30;60.10;;;;;;229275;1249;23113;-54
2023/09/22 11:54:04;;;;;;;2.50;1.60;;;25.30;60.10;;;;;;229243;1264;22291;-54
2023/09/22 11:59:12;;;;;;;2.50;1.70;;;25.20;60.20;;;;;;229263;1249;22269;-54
2023/09/22 12:04:14;;;;;;;3.50;1.70;;;25.20;60.30;;;;;;229274;1249;22392;-53
2023/09/22 12:09:18;;;;;;;2.90;1.80;;;25.20;60.50;;;;;;229202;1264;22280;-54
2023/09/22 12:14:22;;;;;;;3.30;1.90;;;25.30;61.20;;;;;;228888;1264;391492;-55
2023/09/22 12:19:26;;;;;;;4.60;2.00;;;25.30;60.60;;;;;;229193;1264;22264;-56
2023/09/22 12:24:29;;;;;;;4.00;1.80;;;25.30;60.70;;;;;;229239;1253;22279;-54
2023/09/22 12:29:31;;;;;;;2.10;1.90;;;25.30;60.70;;;;;;229213;1264;23018;-55
2023/09/22 12:34:34;;;;;;;4.60;2.30;;;25.40;60.50;;;;;;229224;1264;22345;-54
2023/09/22 12:39:38;;;;;;;2.00;1.90;;;25.30;60.50;;;;;;229226;1264;22300;-55
2023/09/22 12:44:41;;;;;;;2.10;1.90;;;25.30;60.30;;;;;;229220;1254;22591;-55
2023/09/22 12:49:44;;;;;;;4.50;2.10;;;25.30;60.10;;;;;;229247;1264;22319;-52
2023/09/22 12:54:46;;;;;;;6.00;1.70;;;25.20;60.10;;;;;;229223;1258;22332;-53
2023/09/22 12:59:49;;;;;;;2.50;1.80;;;25.20;60.20;;;;;;229217;1264;22281;-50
2023/09/22 13:04:52;;;;;;;2.70;2.00;;;25.10;60.30;;;;;;229188;1264;22262;-51
2023/09/22 13:09:54;;;;;;;4.50;2.00;;;25.30;60.20;;;;;;229207;1252;22345;-49
2023/09/22 13:14:57;;;;;;;2.60;2.10;;;25.30;60.10;;;;;;229203;1264;23055;-47
2023/09/22 13:20:00;;;;;;;8.30;1.90;;;25.20;60.30;;;;;;229170;1255;22268;-48
2023/09/22 13:25:04;;;;;;;2.20;2.00;;;25.30;61.50;;;;;;229185;1261;22595;-49
2023/09/22 13:30:09;;;;;;;5.30;2.20;;;25.10;63.20;;;;;;229202;1257;22292;-49
2023/09/22 13:35:12;;;;;;;2.30;2.10;;;24.90;63.70;;;;;;229169;1254;22285;-50
2023/09/22 13:40:17;;;;;;;2.20;1.70;;;24.90;64.60;;;;;;229056;1249;22264;-50
2023/09/22 13:45:20;;;;;;;4.70;2.00;;;24.80;63.60;;;;;;229139;1265;22285;-51
2023/09/22 13:50:22;;;;;;;2.20;2.00;;;24.80;64.70;;;;;;229249;1261;22269;-49
2023/09/22 13:55:25;;;;;;;4.20;2.20;;;24.80;63.50;;;;;;229186;1264;22271;-49
2023/09/22 14:00:28;;;;;;;2.90;2.00;;;24.90;64.40;;;;;;221131;1256;25234;-47
2023/09/22 14:05:32;;;;;;;7.20;2.90;;;24.90;64.60;;;;;;229238;1264;22324;-51
2023/09/22 14:10:35;;;;;;;3.00;2.40;;;24.80;65.50;;;;;;229217;1253;22715;-50
2023/09/22 14:15:38;;;;;;;3.30;1.70;;;24.90;64.70;;;;;;229163;1258;22277;-51
2023/09/22 14:20:41;;;;;;;3.10;2.30;;;24.90;64.80;;;;;;229173;1264;22296;-49
2023/09/22 14:25:45;;;;;;;2.30;2.10;;;24.90;65.10;;;;;;229226;1250;22250;-50
2023/09/22 14:30:48;;;;;;;4.00;2.00;;;24.80;66.30;;;;;;229205;1264;22299;-49
2023/09/22 14:35:51;;;;;;;2.50;1.90;;;24.80;65.40;;;;;;229167;1254;23270;-47
2023/09/22 14:40:54;;;;;;;1.70;1.60;;;24.90;64.40;;;;;;229209;1264;22277;-49
2023/09/22 14:45:57;;;;;;;1.70;1.40;;;24.80;65.00;;;;;;229210;1265;22284;-49
2023/09/22 14:51:07;;;;;;;1.50;1.30;;;24.80;64.70;;;;;;229214;1264;22316;-51
2023/09/22 14:56:09;;;;;;;1.30;1.00;;;24.70;64.60;;;;;;229148;1264;22272;-51
2023/09/22 15:01:12;;;;;;;1.30;0.90;;;24.70;64.40;;;;;;229211;1250;22253;-48
2023/09/22 15:06:16;;;;;;;2.20;1.40;;;24.60;63.70;;;;;;229160;1262;22473;-48
2023/09/22 15:11:19;;;;;;;2.70;2.20;;;24.60;63.20;;;;;;229182;1252;22283;-52
2023/09/22 15:16:22;;;;;;;1.90;1.00;;;24.60;63.40;;;;;;229056;1259;22247;-50
2023/09/22 15:21:25;;;;;;;3.40;1.20;;;24.60;62.60;;;;;;229138;1264;22256;-49
2023/09/22 15:26:28;;;;;;;5.00;3.40;;;24.70;63.40;;;;;;229098;1265;22367;-50
2023/09/22 15:31:31;;;;;;;3.90;2.90;;;25.00;64.90;;;;;;229160;1249;22287;-51
2023/09/22 15:36:34;;;;;;;4.60;2.20;;;25.10;65.00;;;;;;229244;1249;22265;-50
2023/09/22 15:41:37;;;;;;;6.20;2.60;;;25.30;65.40;;;;;;229214;1264;22255;-48
2023/09/22 15:46:40;;;;;;;7.80;2.30;;;25.40;64.90;;;;;;229171;1264;22445;-48
2023/09/22 15:51:43;;;;;;;2.90;2.50;;;25.40;64.90;;;;;;224117;1250;22550;-48
2023/09/22 15:56:46;;;;;;;6.50;2.40;;;25.40;65.80;;;;;;229233;1264;22255;-50
2023/09/22 16:01:50;;;;;;;4.90;2.20;;;25.70;64.60;;;;;;229162;1264;22273;-50
2023/09/22 16:06:53;;;;;;;4.60;1.80;;;25.60;64.60;;;;;;229115;1257;22360;-52
2023/09/22 16:11:56;;;;;;;7.80;2.30;;;25.40;64.90;;;;;;229162;1254;22238;-48
2023/09/22 16:16:59;;;;;;;2.30;1.50;;;25.00;66.00;;;;;;229206;1264;23303;-50
2023/09/22 16:22:04;;;;;;;1.70;1.40;;;24.70;64.80;;;;;;229174;1264;23099;-51
2023/09/22 16:27:07;;;;;;;4.50;1.70;;;24.70;63.50;;;;;;229236;1264;22284;-52
2023/09/22 16:32:10;;;;;;;2.30;1.70;;;24.60;63.00;;;;;;229172;1249;23067;-51
2023/09/22 16:37:14;;;;;;;4.40;1.50;;;24.50;62.70;;;;;;229180;1261;22294;-51
2023/09/22 16:42:17;;;;;;;4.00;1.20;;;24.50;62.60;;;;;;229169;1249;22313;-50
2023/09/22 16:47:20;;;;;;;7.60;1.50;;;24.50;62.30;;;;;;229128;1264;22290;-50
2023/09/22 16:52:23;;;;;;;5.60;1.60;;;24.40;63.30;;;;;;229093;1265;22283;-55
2023/09/22 16:57:27;;;;;;;7.80;1.60;;;24.40;62.60;;;;;;228075;1265;22585;-54
2023/09/22 17:02:32;;;;;;;7.00;1.60;;;24.50;64.10;;;;;;220641;1264;26601;-52
2023/09/22 17:07:36;;;;;;;2.80;1.80;;;24.30;63.10;;;;;;229151;1254;22333;-52
2023/09/22 17:12:40;;;;;;;1.40;1.20;;;24.20;61.90;;;;;;229062;1264;22293;-52
2023/09/22 17:17:43;;;;;;;5.30;1.50;;;24.20;61.20;;;;;;229023;1264;22283;-53
2023/09/22 17:22:47;;;;;;;1.50;1.40;;;24.30;60.90;;;;;;229004;1255;22345;-52
2023/09/22 17:27:51;;;;;;;0.80;0.70;;;24.30;60.90;;;;;;229197;1265;22344;-53
2023/09/22 17:32:55;;;;;;;1.80;1.00;;;24.30;60.70;;;;;;229207;1264;23066;-53
2023/09/22 17:37:58;;;;;;;2.80;1.10;;;24.20;60.60;;;;;;229270;1254;22290;-51
2023/09/22 17:43:03;;;;;;;1.90;0.90;;;24.10;60.50;;;;;;229201;1264;22249;-50
2023/09/22 17:48:07;;;;;;;0.90;0.90;;;24.10;60.60;;;;;;229149;1264;22381;-51
2023/09/22 17:53:16;;;;;;;1.40;0.90;;;24.10;60.70;;;;;;229209;1264;23218;-52
2023/09/22 17:58:19;;;;;;;1.30;0.90;;;24.10;60.70;;;;;;229160;1249;22256;-53
2023/09/22 18:03:23;;;;;;;1.20;1.10;;;24.10;60.70;;;;;;229194;1265;22262;-52
2023/09/22 18:08:27;;;;;;;1.40;1.30;;;24.10;60.60;;;;;;229198;1251;22328;-52
2023/09/22 18:13:31;;;;;;;1.30;1.20;;;24.10;60.50;;;;;;224833;1264;23178;-50
2023/09/22 18:18:37;;;;;;;1.50;1.00;;;24.00;60.70;;;;;;229159;1258;22261;-52
2023/09/22 18:23:41;;;;;;;1.20;1.00;;;23.90;60.90;;;;;;229156;1258;22964;-51
2023/09/22 18:29:07;;;;;;;1.00;0.90;;;23.90;60.70;;;;;;229198;1264;22251;-52
2023/09/22 18:34:14;;;;;;;1.00;0.90;;;23.90;60.60;;;;;;222738;1265;22651;-50
2023/09/22 18:39:21;;;;;;;1.60;1.30;;;23.80;60.80;;;;;;229170;1253;22218;-52
2023/09/22 18:44:26;;;;;;;2.40;1.40;;;23.80;61.00;;;;;;229165;1263;22846;-51
2023/09/22 18:49:29;;;;;;;2.00;1.30;;;23.80;60.60;;;;;;229160;1254;22905;-51
2023/09/22 18:54:34;;;;;;;1.00;1.00;;;23.80;60.70;;;;;;225122;1264;24376;-51
2023/09/22 18:59:39;;;;;;;1.60;1.30;;;23.80;60.80;;;;;;229180;1265;22351;-52
2023/09/22 19:04:43;;;;;;;2.20;1.20;;;23.80;61.10;;;;;;229178;1264;22934;-51
2023/09/22 19:09:47;;;;;;;1.20;1.10;;;23.70;60.90;;;;;;228954;1257;22275;-52
2023/09/22 19:14:52;;;;;;;7.10;1.80;;;23.70;60.80;;;;;;229215;1251;22251;-52
2023/09/22 19:19:56;;;;;;;4.10;1.20;;;23.90;60.90;;;;;;229157;1254;22259;-52
2023/09/22 19:25:00;;;;;;;5.90;1.40;;;24.20;61.20;;;;;;229169;1254;22372;-53
2023/09/22 19:30:06;;;;;;;2.80;1.20;;;24.70;61.20;;;;;;229200;1264;22266;-52
2023/09/22 19:35:13;;;;;;;3.40;1.70;;;24.60;61.40;;;;;;229224;1265;23429;-53
2023/09/22 19:40:17;;;;;;;3.50;1.80;;;24.70;61.50;;;;;;228875;1254;22320;-53
2023/09/22 19:45:21;;;;;;;5.60;1.30;;;24.90;61.20;;;;;;229247;1264;24044;-53
2023/09/22 19:50:26;;;;;;;7.00;1.40;;;25.10;61.20;;;;;;229162;1264;22257;-52
2023/09/22 19:55:31;;;;;;;4.10;1.30;;;25.10;62.00;;;;;;229214;1264;22244;-52
2023/09/22 20:00:41;;;;;;;4.50;1.70;;;25.20;62.10;;;;;;229193;1251;22321;-54
2023/09/22 20:05:49;;;;;;;2.10;1.40;;;25.20;62.30;;;;;;229170;1264;23081;-54
2023/09/22 20:11:03;;;;;;;4.20;1.50;;;25.20;61.90;;;;;;229210;1264;22379;-54
2023/09/22 20:16:12;;;;;;;2.00;1.40;;;25.20;61.80;;;;;;229206;1265;22577;-51
2023/09/22 20:21:16;;;;;;;13.30;1.90;;;25.30;63.60;;;;;;229253;1261;23036;-54
2023/09/22 20:26:20;;;;;;;6.20;2.20;;;25.20;62.30;;;;;;223630;1257;22569;-49
2023/09/22 20:31:23;;;;;;;6.10;1.90;;;25.10;62.50;;;;;;229232;1253;23263;-51
2023/09/22 20:36:30;;;;;;;4.00;1.90;;;24.90;62.90;;;;;;229212;1253;22287;-57
2023/09/22 20:41:33;;;;;;;5.40;2.20;;;25.00;63.40;;;;;;229166;1264;22323;-57
2023/09/22 20:46:38;;;;;;;8.20;2.20;;;25.10;63.40;;;;;;229171;1250;22284;-59
2023/09/22 20:51:41;;;;;;;3.90;1.80;;;25.00;63.50;;;;;;225730;1265;23854;-56
2023/09/22 20:56:46;;;;;;;3.50;2.30;;;25.10;63.70;;;;;;229224;1251;22263;-57
2023/09/22 21:01:48;;;;;;;8.30;2.20;;;25.10;63.50;;;;;;229119;1251;22276;-59
2023/09/22 21:06:51;;;;;;;8.70;2.40;;;25.00;64.00;;;;;;229150;1253;22330;-59
2023/09/22 21:11:54;;;;;;;5.40;1.80;;;24.90;64.70;;;;;;229171;1251;22283;-59
2023/09/22 21:16:57;;;;;;;5.20;2.10;;;24.90;64.70;;;;;;229116;1251;23069;-59
2023/09/22 21:22:00;;;;;;;2.70;1.50;;;24.90;64.30;;;;;;227422;1251;24250;-58
2023/09/22 21:27:03;;;;;;;3.10;2.20;;;24.90;64.20;;;;;;229204;1251;22248;-66
2023/09/22 21:32:05;;;;;;;5.60;2.00;;;24.90;64.40;;;;;;229150;1257;23087;-60
2023/09/22 21:37:12;;;;;;;2.80;1.90;;;24.90;63.80;;;;;;229199;1249;22992;-59
2023/09/22 21:42:16;;;;;;;3.70;2.20;;;24.90;63.80;;;;;;228014;1249;24408;-60
2023/09/22 21:47:20;;;;;;;5.50;1.70;;;24.80;63.50;;;;;;229111;1251;22319;-60
2023/09/22 21:52:29;;;;;;;3.10;1.70;;;24.70;64.00;;;;;;229118;1251;22722;-59
2023/09/22 21:57:32;;;;;;;4.00;1.90;;;24.70;63.50;;;;;;229122;1251;22793;-59
2023/09/22 22:02:37;;;;;;;4.20;1.50;;;24.70;63.80;;;;;;229186;1249;22270;-62
2023/09/22 22:07:40;;;;;;;4.60;1.60;;;24.70;63.70;;;;;;229166;1249;22287;-60
2023/09/22 22:12:43;;;;;;;2.40;1.50;;;24.70;63.60;;;;;;229157;1248;22349;-60
2023/09/22 22:17:49;;;;;;;2.80;1.70;;;24.90;62.60;;;;;;229204;1249;22292;-59
2023/09/22 22:22:52;;;;;;;1.70;1.50;;;25.00;62.40;;;;;;229160;1249;22752;-60
2023/09/22 22:27:54;;;;;;;4.90;1.60;;;24.80;62.60;;;;;;229177;1253;22293;-60
2023/09/22 22:33:02;;;;;;;3.80;1.30;;;25.00;62.10;;;;;;229150;1248;22659;-60
2023/09/22 22:38:05;;;;;;;1.80;1.20;;;24.80;62.70;;;;;;229218;1248;22302;-63
2023/09/22 22:43:08;;;;;;;4.90;1.10;;;24.60;63.00;;;;;;229187;1248;22277;-61
2023/09/22 22:48:12;;;;;;;5.00;1.40;;;24.50;62.50;;;;;;229158;1249;23580;-63
2023/09/22 22:53:15;;;;;;;2.70;1.60;;;24.70;63.00;;;;;;229202;1248;24064;-61
2023/09/22 22:58:19;;;;;;;1.50;1.40;;;24.60;63.30;;;;;;222209;1251;22993;-60
2023/09/22 23:03:29;;;;;;;3.80;1.40;;;24.50;63.40;;;;;;229284;1255;22313;-60
2023/09/22 23:08:33;;;;;;;5.20;2.10;;;24.50;63.60;;;;;;229261;1248;22291;-60
2023/09/22 23:13:37;;;;;;;2.00;1.60;;;24.50;63.20;;;;;;229242;1253;22291;-60
2023/09/22 23:18:44;;;;;;;2.00;1.30;;;24.60;62.60;;;;;;229323;1248;22265;-59
2023/09/22 23:23:47;;;;;;;3.90;1.40;;;24.70;62.50;;;;;;229271;1252;22273;-58
2023/09/22 23:28:50;;;;;;;3.30;1.20;;;24.60;62.50;;;;;;229299;1249;23245;-60
2023/09/22 23:33:53;;;;;;;2.70;1.30;;;24.60;62.60;;;;;;229209;1248;22348;-59
2023/09/22 23:38:57;;;;;;;3.90;1.40;;;24.50;62.70;;;;;;229223;1248;23364;-59
2023/09/22 23:43:59;;;;;;;2.10;1.40;;;24.70;62.20;;;;;;229295;1253;22277;-58
2023/09/22 23:49:09;;;;;;;2.20;1.20;;;24.80;62.00;;;;;;229279;1248;22723;-59
2023/09/22 23:54:13;;;;;;;1.20;1.00;;;24.60;62.50;;;;;;229274;1257;22317;-59
2023/09/22 23:59:16;;;;;;;1.30;0.90;;;24.60;62.80;;;;;;229287;1257;22367;-59
